Flight Track Log - Related Links

Times and Time Zones

All times are in EDT time to prevent confusion due to time zone crossing. See the CRQ908 flight status page for this flight to view local times or setup timezone preferences in your user account.

Time Position Orientation Groundspeed Altitude Reporting Facility
EDT Latitude Longitude Course Direction KTS MPH feet Rate Location/Type
Sun 04:40:00 PM 47.7898 -77.3417 132° Southeast  Level Estimated
Sun 04:41:00 PM 47.7458 -77.2686 132° Southeast  Level Estimated
Sun 04:42:00 PM 47.7016 -77.1957 132° Southeast  Level Estimated
Sun 04:42:02 PM 47.8167 -77.3500 132° Southeast 240 276 12,200  Level Montreal Center
Sun 04:43:00 PM 47.6575 -77.1229 132° Southeast  Level Estimated
Sun 04:44:00 PM 47.6132 -77.0502 132° Southeast  Level Estimated
Sun 04:44:02 PM 47.7333 -77.2167 133° Southeast 220 253 14,000  Level Montreal Center
Sun 04:45:00 PM 47.5690 -76.9776 132° Southeast  Level Estimated
Sun 04:45:02 PM 47.7000 -77.1333 121° Southeast 220 253 15,000  Level Montreal Center
Sun 04:46:00 PM 47.5247 -76.9051 132° Southeast  Level Estimated
Sun 04:46:02 PM 47.6500 -77.0667 138° Southeast 230 265 15,800  Level Montreal Center
Sun 04:47:00 PM 47.4803 -76.8328 132° Southeast  Level Estimated
Sun 04:47:02 PM 47.6000 -77.0167 146° Southeast 230 265 16,800  Level Montreal Center
Sun 04:48:02 PM 47.5667 -76.9333 121° Southeast 230 265 17,400 600 Climbing Montreal Center
Sun 04:49:02 PM 47.5167 -76.8667 138° Southeast 230 265 18,000 700 Climbing Montreal Center
Sun 04:50:02 PM 47.4833 -76.7833 121° Southeast 230 265 18,800 700 Climbing Montreal Center
Sun 04:51:02 PM 47.4333 -76.7167 138° Southeast 230 265 19,400 600 Climbing Montreal Center
Sun 04:52:02 PM 47.4000 -76.6667 135° Southeast 220 253 20,000 550 Climbing Montreal Center
Sun 04:53:02 PM 47.3500 -76.5833 132° Southeast 230 265 20,500 500 Climbing Montreal Center
Sun 04:54:02 PM 47.3000 -76.5167 138° Southeast 230 265 21,000 250 Climbing Montreal Center
Sun 04:55:02 PM 47.2667 -76.4333 120° Southeast 240 276 21,000  Level Montreal Center
Sun 04:56:02 PM 47.2000 -76.3667 146° Southeast 270 311 21,000  Level Montreal Center
Sun 04:57:02 PM 47.1500 -76.2667 126° Southeast 270 311 21,000  Level Montreal Center
Sun 04:58:02 PM 47.1000 -76.1833 131° Southeast 280 322 21,000  Level Montreal Center
Sun 04:59:02 PM 47.0500 -76.0833 126° Southeast 280 322 21,000  Level Montreal Center
Sun 05:00:02 PM 47.0000 -76.0167 138° Southeast 280 322 21,000  Level Montreal Center
Sun 05:01:02 PM 46.9500 -75.9167 126° Southeast 280 322 21,000  Level Montreal Center
Sun 05:02:02 PM 46.9000 -75.8500 138° Southeast 280 322 21,000  Level Montreal Center
Sun 05:03:02 PM 46.8333 -75.7500 134° Southeast 280 322 21,000  Level Montreal Center
Sun 05:04:02 PM 46.7833 -75.6667 131° Southeast 280 322 21,000  Level Montreal Center
Sun 05:05:02 PM 46.7333 -75.5833 131° Southeast 280 322 21,000  Level Montreal Center
Sun 05:06:02 PM 46.6833 -75.5000 131° Southeast 290 334 21,000  Level Montreal Center
Sun 05:07:02 PM 46.6333 -75.4000 126° Southeast 290 334 21,000  Level Montreal Center
Sun 05:08:02 PM 46.5667 -75.3333 145° Southeast 280 322 21,000  Level Montreal Center
Sun 05:09:02 PM 46.5167 -75.2333 126° Southeast 280 322 21,000  Level Montreal Center
Sun 05:10:02 PM 46.4667 -75.1667 137° Southeast 290 334 21,000  Level Montreal Center
Sun 05:11:02 PM 46.4167 -75.0667 126° Southeast 290 334 21,000 -250 Level Montreal Center
Sun 05:12:02 PM 46.3667 -75.0000 137° Southeast 280 322 20,500 -1,050 Descending Montreal Center
Sun 05:13:02 PM 46.2833 -74.9000 140° Southeast 320 368 18,900 -1,450 Descending Montreal Center
Sun 05:14:02 PM 46.2333 -74.8000 126° Southeast 320 368 17,600 -1,450 Descending Montreal Center
Sun 05:15:02 PM 46.1667 -74.7167 139° Southeast 310 357 16,000 -1,500 Descending Montreal Center
Sun 05:16:02 PM 46.1167 -74.6167 126° Southeast 300 345 14,600 -1,500 Descending Montreal Center
Sun 05:17:02 PM 46.0667 -74.5167 126° Southeast 290 334 13,000 -1,500 Descending Montreal Center
Sun 05:18:02 PM 46.0000 -74.4500 145° Southeast 280 322 11,600 -1,350 Descending Montreal Center
Sun 05:19:02 PM 45.9500 -74.3833 137° Southeast 280 322 10,300 -1,100 Descending Montreal Center
Sun 05:20:02 PM 45.8833 -74.3000 139° Southeast 280 322 9,400 -900 Descending Montreal Center
Sun 05:21:02 PM 45.8333 -74.2333 137° Southeast 280 322 8,500 -950 Descending Montreal Center
Sun 05:22:02 PM 45.7667 -74.1667 145° Southeast 280 322 7,500 -900 Descending Montreal Center
Sun 05:23:02 PM 45.7167 -74.0667 126° Southeast 280 322 6,700 -700 Descending Montreal Center
Sun 05:24:02 PM 45.6667 -73.9833 131° Southeast 280 322 6,100 -350 Descending Montreal Center
Sun 05:25:02 PM 45.6667 -73.8833 90° East 260 299 6,000 -200 Descending Montreal Center
Sun 05:26:02 PM 45.6500 -73.7667 102° East 260 299 5,700 -900 Descending Montreal Center
Sun 05:27:02 PM 45.6500 -73.6667 90° East 270 311 4,200 -1,100 Descending Montreal Center
Sun 05:28:02 PM 45.6500 -73.5667 90° East 240 276 3,500 -600 Descending Montreal Center
Sun 05:29:02 PM 45.6333 -73.4833 106° East 210 242 3,000 -250 Descending Montreal Center
Sun 05:30:02 PM 45.6000 -73.5167 215° Southwest 170 196 3,000 -150 Level Montreal Center
Sun 05:31:02 PM 45.5667 -73.5667 226° Southwest 170 196 2,700 -500 Descending Montreal Center
Sun 05:32:02 PM 45.5333 -73.6167 226° Southwest 140 161 2,000 -700 Descending Montreal Center
Sun 05:33:02 PM 45.5167 -73.6500 234° Southwest 130 150 1,300 -650 Descending Montreal Center
Sun 05:34:02 PM 45.4833 -73.6667 199° South 110 127 700 -550 Descending Montreal Center
Sun 05:35:02 PM 45.4667 -73.7000 235° Southwest 120 138 200 -300 Descending Montreal Center
Sun 05:36:02 PM 45.4500 -73.7167 215° Southwest 50 58 100 -100 Descending Montreal Center

Login

Don't have an account? Register now (free) for customized features, flight alerts, and more!